Time;durP1;ratioP1;P1;durP2;ratioP2;P2;SDS_P1;SDS_P2;PMS_P1;PMS_P2;Temp;Humidity;BMP_temperature;BMP_pressure;BME280_temperature;BME280_humidity;BME280_pressure;Samples;Min_cycle;Max_cycle;Signal;HPM_P1;HPM_P2
2022/10/04 00:00:22;;;;;;;8.57;3.10;;;;;;;13.52;52.41;102398.34;7392886;19;20362;-59
2022/10/04 00:02:48;;;;;;;12.88;3.42;;;;;;;13.56;52.50;102384.81;7391769;19;20391;-59
2022/10/04 00:05:16;;;;;;;8.00;2.83;;;;;;;13.57;52.30;102375.44;7393222;19;20025;-59
2022/10/04 00:07:51;;;;;;;11.95;3.10;;;;;;;13.57;52.19;102366.41;7393208;19;20215;-59
2022/10/04 00:10:23;;;;;;;9.82;3.50;;;;;;;13.47;52.59;102373.03;7392528;19;20005;-59
2022/10/04 00:12:59;;;;;;;11.38;3.45;;;;;;;13.46;52.47;102372.25;7391339;19;20014;-59
2022/10/04 00:15:29;;;;;;;9.13;2.97;;;;;;;13.51;52.57;102374.03;7394287;19;20007;-59
2022/10/04 00:18:06;;;;;;;13.15;3.20;;;;;;;13.51;52.33;102374.03;7393385;19;20011;-58
2022/10/04 00:20:49;;;;;;;11.32;3.40;;;;;;;13.47;52.84;102373.03;7391036;19;20006;-59
2022/10/04 00:23:24;;;;;;;8.68;3.08;;;;;;;13.51;52.42;102374.03;7390396;19;20066;-59
2022/10/04 00:25:51;;;;;;;8.25;3.33;;;;;;;13.52;52.29;102378.34;7391586;19;20006;-59
2022/10/04 00:28:20;;;;;;;9.60;3.50;;;;;;;13.55;52.35;102376.91;7391396;19;20011;-59
2022/10/04 00:31:04;;;;;;;10.07;2.90;;;;;;;13.51;52.41;102374.81;7393713;19;20464;-59
2022/10/04 00:33:46;;;;;;;9.70;3.35;;;;;;;13.52;52.44;102370.94;7390240;19;20019;-58
2022/10/04 00:36:24;;;;;;;8.13;3.22;;;;;;;13.60;52.21;102363.84;7394959;19;19999;-59
2022/10/04 00:39:08;;;;;;;12.07;3.45;;;;;;;13.51;52.20;102360.31;7395603;19;20030;-59
2022/10/04 00:41:39;;;;;;;11.57;3.30;;;;;;;13.47;52.26;102362.06;7390991;19;19998;-59
2022/10/04 00:44:14;;;;;;;10.48;3.40;;;;;;;13.55;52.01;102364.00;7389807;19;20026;-59
2022/10/04 00:46:43;;;;;;;13.18;3.50;;;;;;;13.46;52.27;102368.66;7391127;19;19999;-59
2022/10/04 00:49:12;;;;;;;12.02;3.30;;;;;;;13.33;52.64;102374.00;7389683;19;20063;-59
2022/10/04 00:51:44;;;;;;;10.88;3.47;;;;;;;13.36;52.69;102378.06;7389945;19;20031;-58
2022/10/04 00:54:18;;;;;;;7.97;2.95;;;;;;;13.45;52.44;102375.31;7391733;19;20002;-59
2022/10/04 00:56:51;;;;;;;9.45;3.30;;;;;;;13.42;52.35;102371.25;7392601;19;20306;-59
2022/10/04 00:59:16;;;;;;;9.23;3.17;;;;;;;13.33;52.79;102363.03;7390185;19;20466;-59
2022/10/04 01:01:46;;;;;;;10.32;3.70;;;;;;;13.41;52.26;102357.88;7389375;19;19998;-59
2022/10/04 01:04:34;;;;;;;12.77;3.47;;;;;;;13.40;52.81;102354.31;7388538;19;20095;-59
2022/10/04 01:07:03;;;;;;;10.38;3.35;;;;;;;13.44;52.40;102354.47;7391395;19;19999;-59
2022/10/04 01:09:32;;;;;;;8.32;3.50;;;;;;;13.40;52.68;102359.00;7391811;19;20002;-59
2022/10/04 01:12:06;;;;;;;9.27;3.10;;;;;;;13.30;52.79;102346.41;7389994;19;20070;-59
2022/10/04 01:14:46;;;;;;;12.07;3.42;;;;;;;13.26;52.98;102340.78;7391807;19;20006;-58
2022/10/04 01:17:12;;;;;;;9.30;3.60;;;;;;;13.21;52.86;102335.47;7390757;19;20009;-58
2022/10/04 01:19:37;;;;;;;13.88;3.72;;;;;;;13.20;52.97;102331.09;7390514;19;19999;-58
2022/10/04 01:22:32;;;;;;;10.70;3.63;;;;;;;13.24;53.17;102329.34;7389578;19;20389;-59
2022/10/04 01:24:58;;;;;;;9.00;3.38;;;;;;;13.29;52.95;102317.38;7389645;19;20026;-59
2022/10/04 01:27:53;;;;;;;11.38;3.55;;;;;;;13.25;53.03;102317.22;7390781;19;20003;-58
2022/10/04 01:30:19;;;;;;;13.15;3.97;;;;;;;13.22;53.09;102326.09;7389461;19;20039;-59
2022/10/04 01:32:44;;;;;;;13.15;3.72;;;;;;;13.14;53.15;102322.22;7387433;19;20007;-59
2022/10/04 01:35:12;;;;;;;10.75;4.18;;;;;;;13.17;52.96;102315.28;7391097;19;20466;-59
2022/10/04 01:37:38;;;;;;;13.38;4.55;;;;;;;13.15;53.36;102312.88;7388311;19;20017;-59
2022/10/04 01:40:09;;;;;;;10.05;2.95;;;;;;;13.23;52.87;102313.22;7390423;19;20066;-59
2022/10/04 01:42:48;;;;;;;10.82;3.80;;;;;;;13.27;53.12;102311.41;7388987;19;20014;-59
2022/10/04 01:45:27;;;;;;;9.77;3.10;;;;;;;13.33;52.85;102302.69;7390622;19;20066;-59
2022/10/04 01:48:00;;;;;;;13.60;3.05;;;;;;;13.37;52.75;102304.81;7390077;19;20017;-59
2022/10/04 01:50:31;;;;;;;7.72;3.20;;;;;;;13.31;52.88;102299.50;7391219;19;20017;-59
2022/10/04 01:53:21;;;;;;;9.75;3.70;;;;;;;13.29;52.99;102289.97;7387438;19;20006;-59
2022/10/04 01:55:52;;;;;;;11.35;3.45;;;;;;;13.18;53.15;102297.72;7389812;19;20006;-59
2022/10/04 01:58:18;;;;;;;12.93;3.78;;;;;;;13.25;53.03;102297.22;7388838;19;19999;-59
2022/10/04 02:00:56;;;;;;;9.68;3.60;;;;;;;13.29;53.08;102301.75;7390811;19;20004;-59
2022/10/04 02:03:40;;;;;;;12.88;3.90;;;;;;;13.36;52.71;102289.47;7385891;19;20009;-59
2022/10/04 02:06:07;;;;;;;;;;;;;;;13.40;53.17;102296.72;7390842;19;20010;-59
2022/10/04 02:08:37;;;;;;;12.98;3.20;;;;;;;13.45;52.45;102293.03;7387967;19;19921;-59
2022/10/04 02:11:04;;;;;;;11.38;3.80;;;;;;;13.36;52.52;102292.22;7386665;19;20009;-59
2022/10/04 02:13:37;;;;;;;9.20;3.47;;;;;;;13.36;52.64;102289.47;7391038;19;20035;-59
2022/10/04 02:16:07;;;;;;;13.63;3.90;;;;;;;13.31;52.74;102287.72;7392301;19;20018;-59
2022/10/04 02:18:36;;;;;;;9.32;3.22;;;;;;;13.28;53.15;102291.09;7396594;19;20066;-59
2022/10/04 02:21:04;;;;;;;9.23;3.35;;;;;;;13.39;52.73;102281.41;7396770;19;20002;-59
2022/10/04 02:23:32;;;;;;;11.85;4.13;;;;;;;13.33;52.63;102280.75;7392744;19;20029;-59
2022/10/04 02:25:58;;;;;;;11.68;3.83;;;;;;;13.26;53.06;102282.38;7396136;19;20002;-59
2022/10/04 02:28:24;;;;;;;10.32;3.20;;;;;;;13.18;53.18;102281.28;7396710;19;20066;-59
2022/10/04 02:33:41;;;;;;;8.95;3.78;;;;;;;13.25;52.90;102267.88;7393929;19;20063;-59
2022/10/04 02:36:08;;;;;;;10.27;3.92;;;;;;;13.22;52.71;102276.75;7395957;19;20013;-59
2022/10/04 02:38:40;;;;;;;12.82;4.55;;;;;;;13.23;52.78;102269.34;7393880;19;19998;-59
2022/10/04 02:41:42;;;;;;;10.27;3.60;;;;;;;13.24;52.67;102266.28;7394940;19;20397;-59
2022/10/04 02:44:19;;;;;;;10.25;3.97;;;;;;;13.21;52.88;102263.34;7392391;19;19999;-59
2022/10/04 02:47:11;;;;;;;15.90;4.03;;;;;;;13.11;53.13;102267.25;7395099;19;20491;-59
2022/10/04 02:49:43;;;;;;;11.38;4.57;;;;;;;13.12;53.10;102263.38;7393554;19;20006;-59
2022/10/04 02:52:09;;;;;;;9.88;3.90;;;;;;;13.21;52.91;102260.59;7394428;19;20042;-59
2022/10/04 02:54:44;;;;;;;11.02;4.05;;;;;;;13.14;53.04;102250.97;7396291;19;20007;-59
2022/10/04 02:57:18;;;;;;;8.80;3.83;;;;;;;13.20;52.45;102248.84;7395123;19;19998;-59
2022/10/04 02:59:44;;;;;;;13.40;4.20;;;;;;;13.23;52.72;102244.66;7395106;19;20008;-59
2022/10/04 03:02:28;;;;;;;13.65;4.25;;;;;;;13.18;52.78;102245.63;7392400;19;19998;-59
2022/10/04 03:05:03;;;;;;;12.13;4.25;;;;;;;13.21;52.41;102242.25;7396407;19;20014;-59
2022/10/04 03:07:31;;;;;;;11.15;4.10;;;;;;;13.15;52.85;102243.53;7395101;19;20002;-59
2022/10/04 03:09:57;;;;;;;14.57;4.43;;;;;;;13.09;52.90;102242.06;7394246;19;20010;-59
2022/10/04 03:12:23;;;;;;;11.05;4.28;;;;;;;13.10;52.60;102238.22;7393722;19;20026;-59
2022/10/04 03:14:52;;;;;;;8.30;4.30;;;;;;;13.09;53.10;102240.16;7394994;19;20066;-59
2022/10/04 03:17:18;;;;;;;12.98;4.53;;;;;;;13.01;53.09;102240.13;7393839;19;20002;-59
2022/10/04 03:19:47;;;;;;;9.20;3.83;;;;;;;13.10;52.85;102243.69;7394557;19;20010;-60
2022/10/04 03:22:13;;;;;;;12.45;4.45;;;;;;;13.22;52.55;102241.09;7393134;19;20005;-59
2022/10/04 03:24:52;;;;;;;12.68;4.75;;;;;;;13.17;52.76;102238.53;7391259;19;19994;-59
2022/10/04 03:27:26;;;;;;;13.05;5.22;;;;;;;13.17;52.67;102227.56;7391024;19;20483;-59
2022/10/04 03:29:53;;;;;;;11.20;4.30;;;;;;;13.21;52.65;102227.72;7391869;19;20034;-58
2022/10/04 03:32:20;;;;;;;13.90;4.88;;;;;;;13.17;52.61;102232.25;7393204;19;20069;-59
2022/10/04 03:34:56;;;;;;;11.98;5.18;;;;;;;13.21;52.51;102227.72;7391924;19;20489;-59
2022/10/04 03:37:22;;;;;;;14.15;5.20;;;;;;;13.19;52.63;102230.78;7394659;19;19995;-59
2022/10/04 03:39:52;;;;;;;10.43;4.50;;;;;;;13.11;53.03;102223.41;7391297;19;20002;-59
2022/10/04 03:42:19;;;;;;;14.07;6.03;;;;;;;13.13;53.07;102227.41;7392450;19;19995;-58
2022/10/04 03:44:47;;;;;;;13.68;5.88;;;;;;;13.21;52.71;102219.47;7392538;19;20008;-58
2022/10/04 03:47:19;;;;;;;11.40;5.57;;;;;;;13.22;52.58;102224.66;7394759;19;20009;-59
2022/10/04 03:49:46;;;;;;;12.05;6.07;;;;;;;13.11;52.86;102213.22;7393062;19;20002;-58
2022/10/04 03:52:24;;;;;;;11.30;6.18;;;;;;;13.19;52.67;102219.81;7392735;19;19995;-59
2022/10/04 03:54:56;;;;;;;14.98;6.90;;;;;;;13.11;52.86;102224.19;7393832;19;20474;-58
2022/10/04 03:57:22;;;;;;;16.98;6.28;;;;;;;13.13;52.90;102215.63;7393639;19;20019;-59
2022/10/04 03:59:49;;;;;;;16.92;6.00;;;;;;;13.07;52.95;102222.41;7393855;19;19998;-59
2022/10/04 04:02:28;;;;;;;10.32;5.40;;;;;;;13.09;52.89;102214.66;7393166;19;20458;-59
2022/10/04 04:05:04;;;;;;;11.48;5.60;;;;;;;13.15;52.92;102216.13;7393101;19;20002;-59
2022/10/04 04:07:44;;;;;;;12.02;5.25;;;;;;;13.19;52.59;102213.53;7391632;19;20017;-59
2022/10/04 04:10:27;;;;;;;16.70;5.88;;;;;;;13.08;52.81;102227.56;7392195;19;20501;-59
2022/10/04 04:12:59;;;;;;;17.52;5.57;;;;;;;13.03;52.99;102229.69;7390945;19;20017;-59
2022/10/04 04:15:31;;;;;;;11.90;5.03;;;;;;;13.07;52.95;102227.91;7391375;19;20046;-59
2022/10/04 04:18:04;;;;;;;14.32;5.72;;;;;;;13.13;52.86;102221.91;7392120;19;19998;-59
2022/10/04 04:20:34;;;;;;;13.65;5.70;;;;;;;13.10;52.77;102228.03;7391286;19;20006;-58
2022/10/04 04:22:59;;;;;;;12.85;5.78;;;;;;;13.09;52.85;102231.94;7389811;19;20012;-59
2022/10/04 04:25:27;;;;;;;15.48;5.55;;;;;;;13.11;52.89;102237.09;7393981;19;19991;-59
2022/10/04 04:28:01;;;;;;;12.63;5.50;;;;;;;13.17;52.71;102235.78;7391301;19;20005;-59
2022/10/04 04:30:29;;;;;;;14.27;5.40;;;;;;;13.08;53.19;102237.75;7393216;19;20054;-59
2022/10/04 04:32:56;;;;;;;11.88;5.57;;;;;;;13.06;53.06;102231.75;7391407;19;20022;-59
2022/10/04 04:35:32;;;;;;;18.60;6.25;;;;;;;12.92;53.45;102227.25;7393424;19;20466;-59
2022/10/04 04:38:22;;;;;;;16.15;6.90;;;;;;;12.94;53.52;102225.00;7390723;19;20002;-59
2022/10/04 04:40:48;;;;;;;16.80;6.13;;;;;;;12.95;53.27;102226.59;7391938;19;19998;-59
2022/10/04 04:43:21;;;;;;;16.65;6.78;;;;;;;12.94;53.26;102225.00;7389951;19;19995;-59
2022/10/04 04:45:48;;;;;;;12.90;5.63;;;;;;;12.96;53.22;102217.25;7392118;19;20341;-59
2022/10/04 04:48:17;;;;;;;13.52;6.47;;;;;;;13.02;53.06;102215.16;7391929;19;20388;-59
2022/10/04 04:50:51;;;;;;;15.57;6.93;;;;;;;13.01;52.95;102208.06;7391999;19;20012;-59
2022/10/04 04:53:21;;;;;;;;;;;;;;;12.90;53.60;102201.31;7392170;19;20006;-60
2022/10/04 04:55:56;;;;;;;12.82;6.00;;;;;;;12.91;53.01;102209.22;7391503;19;19918;-62
2022/10/04 04:58:35;;;;;;;16.65;6.25;;;;;;;13.02;53.02;102192.44;7392534;19;19998;-59
2022/10/04 05:01:13;;;;;;;16.27;6.15;;;;;;;13.00;52.95;102197.44;7392143;19;20002;-60
2022/10/04 05:03:39;;;;;;;17.02;7.05;;;;;;;12.95;53.22;102201.16;7388293;19;19995;-59
2022/10/04 05:06:21;;;;;;;14.35;6.57;;;;;;;12.89;53.24;102203.25;7391584;19;20006;-58
2022/10/04 05:08:49;;;;;;;14.40;6.57;;;;;;;12.79;53.62;102198.03;7391113;19;19998;-59
2022/10/04 05:11:15;;;;;;;14.77;6.78;;;;;;;12.86;53.14;102200.28;7391911;19;19999;-59
2022/10/04 05:13:56;;;;;;;16.73;6.75;;;;;;;12.80;53.50;102198.88;7390454;19;20014;-58
2022/10/04 05:16:28;;;;;;;14.07;6.75;;;;;;;12.81;53.29;102198.53;7388826;19;19998;-59
2022/10/04 05:19:00;;;;;;;15.80;7.35;;;;;;;12.81;53.37;102201.28;7390361;19;20487;-59
2022/10/04 05:21:28;;;;;;;20.55;7.80;;;;;;;12.73;53.49;102193.88;7390404;19;20095;-59
2022/10/04 05:23:57;;;;;;;20.08;7.97;;;;;;;12.80;53.63;102199.66;7390236;19;20002;-58
2022/10/04 05:26:28;;;;;;;16.90;7.18;;;;;;;12.80;53.22;102196.91;7391001;19;20609;-58
2022/10/04 05:28:59;;;;;;;21.60;7.93;;;;;;;12.74;53.50;102201.78;7389370;19;19998;-59
2022/10/04 05:31:43;;;;;;;23.15;8.02;;;;;;;12.79;53.40;102200.78;7389956;19;20489;-59
2022/10/04 05:34:23;;;;;;;25.35;7.90;;;;;;;12.77;53.34;102192.91;7392027;19;20026;-59
2022/10/04 05:37:05;;;;;;;23.25;8.20;;;;;;;12.77;53.08;102203.03;7389652;19;20477;-59
2022/10/04 05:39:47;;;;;;;22.52;8.25;;;;;;;12.75;53.23;102199.81;7390556;19;20006;-58
2022/10/04 05:42:12;;;;;;;21.42;9.05;;;;;;;12.66;53.63;102201.75;7389505;19;20336;-59
2022/10/04 05:44:55;;;;;;;20.05;8.05;;;;;;;12.65;53.54;102200.94;7388928;19;19995;-59
2022/10/04 05:47:31;;;;;;;22.65;8.05;;;;;;;12.69;53.60;102206.59;7390494;19;20099;-59
2022/10/04 05:49:58;;;;;;;18.85;8.20;;;;;;;12.70;53.49;102205.47;7389513;19;20019;-59
2022/10/04 05:52:34;;;;;;;19.17;7.95;;;;;;;12.70;53.46;102202.72;7395794;19;19995;-59
2022/10/04 05:55:17;;;;;;;21.58;8.00;;;;;;;12.73;53.62;102202.09;7398015;19;19995;-58
2022/10/04 05:57:52;;;;;;;21.15;8.15;;;;;;;12.71;53.31;102205.16;7396758;19;19999;-59
2022/10/04 06:00:34;;;;;;;21.42;8.85;;;;;;;12.65;53.53;102194.66;7396705;19;20013;-59
2022/10/04 06:03:31;;;;;;;17.83;8.43;;;;;;;12.69;53.56;102196.44;7393146;19;20522;-59
2022/10/04 06:06:11;;;;;;;21.25;8.15;;;;;;;12.73;53.09;102191.13;7398100;19;20010;-59
2022/10/04 06:09:14;;;;;;;15.85;7.53;;;;;;;12.76;53.06;102195.97;7394586;19;20009;-59
2022/10/04 06:12:04;;;;;;;18.67;8.45;;;;;;;12.74;53.09;102190.81;7395397;19;20554;-59
2022/10/04 06:14:47;;;;;;;16.20;7.40;;;;;;;12.77;53.03;102197.56;7391839;19;20024;-59
2022/10/04 06:17:49;;;;;;;18.77;8.40;;;;;;;12.77;53.19;102197.56;7395566;19;20467;-59
2022/10/04 06:20:45;;;;;;;15.32;8.10;;;;;;;12.82;52.88;102197.41;7397005;19;20002;-59
2022/10/04 06:23:17;;;;;;;19.15;8.50;;;;;;;12.76;52.91;102204.97;7395626;19;20462;-59
2022/10/04 06:25:57;;;;;;;20.58;8.50;;;;;;;12.76;53.21;102201.44;7396134;19;20006;-59
2022/10/04 06:28:32;;;;;;;17.42;8.90;;;;;;;12.79;53.01;102203.53;7395627;19;20462;-59
2022/10/04 06:31:06;;;;;;;20.10;9.10;;;;;;;12.75;53.17;102205.31;7397224;19;19999;-59
2022/10/04 06:33:41;;;;;;;19.63;9.90;;;;;;;12.83;53.02;102196.28;7394666;19;20104;-59
2022/10/04 06:36:18;;;;;;;16.83;9.48;;;;;;;12.80;53.09;102202.41;7397172;19;19999;-59
2022/10/04 06:39:09;;;;;;;18.65;9.23;;;;;;;12.80;53.09;102193.38;7396413;19;20003;-59
2022/10/04 06:41:48;;;;;;;19.50;8.90;;;;;;;12.85;52.96;102194.03;7395543;19;20066;-59
2022/10/04 06:44:46;;;;;;;17.83;8.75;;;;;;;12.86;53.03;102190.16;7392837;19;20018;-59
2022/10/04 06:47:30;;;;;;;15.45;8.20;;;;;;;12.85;52.84;102185.81;7393750;19;19994;-58
2022/10/04 06:50:16;;;;;;;17.23;8.20;;;;;;;12.91;52.80;102192.75;7394559;19;20082;-58
2022/10/04 06:53:09;;;;;;;16.13;7.95;;;;;;;12.96;52.63;102189.06;7394962;19;20099;-59
2022/10/04 06:55:54;;;;;;;17.60;8.70;;;;;;;12.92;52.82;102196.31;7396839;19;20032;-59
2022/10/04 06:58:36;;;;;;;20.83;9.00;;;;;;;12.98;52.69;102197.75;7394935;19;20014;-59
2022/10/04 07:01:31;;;;;;;16.55;8.35;;;;;;;13.02;52.38;102195.16;7396636;19;20028;-59
2022/10/04 07:04:05;;;;;;;18.02;9.13;;;;;;;13.04;52.62;102206.59;7392689;19;20022;-60
2022/10/04 07:06:45;;;;;;;19.52;8.00;;;;;;;12.99;52.65;102204.03;7394835;19;20006;-59
2022/10/04 07:09:24;;;;;;;18.63;8.13;;;;;;;13.01;52.75;102201.78;7394828;19;20005;-59
2022/10/04 07:11:54;;;;;;;16.83;7.53;;;;;;;13.07;52.59;102201.28;7394311;19;20029;-58
2022/10/04 07:14:37;;;;;;;18.02;8.18;;;;;;;13.12;52.70;102203.06;7392874;19;20078;-58
2022/10/04 07:17:26;;;;;;;16.30;8.40;;;;;;;13.15;52.25;102200.47;7394645;19;20002;-58
2022/10/04 07:19:53;;;;;;;21.13;8.45;;;;;;;13.20;52.24;102204.19;7394267;19;19999;-58
2022/10/04 07:22:35;;;;;;;19.17;8.20;;;;;;;13.11;52.52;102205.00;7392792;19;20010;-58
2022/10/04 07:25:29;;;;;;;18.27;8.13;;;;;;;13.11;52.55;102204.19;7392683;19;19999;-57
2022/10/04 07:31:02;;;;;;;22.95;8.00;;;;;;;13.27;52.09;102210.75;7394681;19;20034;-58
2022/10/04 07:33:33;;;;;;;22.23;7.78;;;;;;;13.28;52.10;102206.09;7390174;19;20011;-58
2022/10/04 07:36:10;;;;;;;16.00;7.82;;;;;;;13.33;52.16;102206.72;7367171;19;20007;-58
2022/10/04 07:39:00;;;;;;;19.90;8.20;;;;;;;13.38;51.81;102210.44;7392329;19;20003;-58
2022/10/04 07:41:38;;;;;;;19.75;7.57;;;;;;;13.39;51.78;102218.31;7394470;19;20003;-58
2022/10/04 07:44:16;;;;;;;16.10;7.95;;;;;;;13.37;52.08;102208.81;7392638;19;20620;-58
2022/10/04 07:46:41;;;;;;;14.95;7.60;;;;;;;13.28;52.18;102215.13;7394945;19;20010;-58
2022/10/04 07:49:19;;;;;;;16.73;7.57;;;;;;;13.44;52.14;102212.69;7393489;19;20012;-57
2022/10/04 07:52:17;;;;;;;19.75;7.95;;;;;;;13.45;51.96;102211.53;7393753;19;19999;-58
2022/10/04 07:54:55;;;;;;;19.05;8.23;;;;;;;13.58;51.85;102209.72;7394156;19;20010;-57
2022/10/04 07:57:32;;;;;;;18.73;8.43;;;;;;;13.63;51.55;102204.06;7392397;19;20032;-57
2022/10/04 08:00:15;;;;;;;16.98;7.75;;;;;;;13.61;51.87;102203.59;7392830;19;20021;-57
2022/10/04 08:03:10;;;;;;;16.13;7.90;;;;;;;13.78;51.47;102196.44;7392499;19;20002;-58
2022/10/04 08:05:51;;;;;;;19.08;7.60;;;;;;;13.76;51.72;102204.16;7392924;19;20007;-58
2022/10/04 08:09:01;;;;;;;17.88;7.30;;;;;;;13.89;51.33;102200.44;7391025;19;20018;-58
2022/10/04 08:11:51;;;;;;;15.77;7.85;;;;;;;13.98;51.16;102206.69;7391455;19;20062;-57
2022/10/04 08:14:31;;;;;;;16.48;7.18;;;;;;;14.07;51.06;102204.69;7388948;19;20480;-58
2022/10/04 08:17:10;;;;;;;20.17;7.28;;;;;;;14.15;51.19;102199.50;7393383;19;20032;-57
2022/10/04 08:20:03;;;;;;;15.60;6.70;;;;;;;14.16;51.03;102192.88;7392437;19;20003;-58
2022/10/04 08:22:29;;;;;;;19.60;7.07;;;;;;;14.25;50.75;102193.63;7389515;19;20010;-58
2022/10/04 08:25:16;;;;;;;14.90;6.57;;;;;;;14.22;50.99;102186.84;7389603;19;20002;-57
2022/10/04 08:30:55;;;;;;;16.77;6.68;;;;;;;14.26;50.95;102184.22;7392347;19;20033;-57
2022/10/04 08:33:25;;;;;;;14.35;5.72;;;;;;;14.24;50.71;102183.78;7392154;19;20010;-57
2022/10/04 08:36:10;;;;;;;12.70;5.60;;;;;;;14.40;50.44;102184.78;7390312;19;20006;-58
2022/10/04 08:38:59;;;;;;;14.32;5.00;;;;;;;14.32;50.63;102174.66;7392459;19;19999;-58
2022/10/04 08:42:03;;;;;;;19.15;5.38;;;;;;;14.58;49.99;102179.97;7390658;19;20032;-58
2022/10/04 08:44:48;;;;;;;14.30;4.70;;;;;;;14.66;49.81;102172.78;7391270;19;20003;-58
2022/10/04 08:47:32;;;;;;;18.95;5.75;;;;;;;14.79;49.31;102168.97;7391740;19;20029;-57
2022/10/04 08:50:24;;;;;;;;;;;;;;;14.80;49.24;102167.84;7390362;19;19998;-58
2022/10/04 08:53:06;;;;;;;18.52;5.35;;;;;;;14.87;49.23;102170.06;7390148;19;19922;-58
2022/10/04 08:56:00;;;;;;;12.80;5.43;;;;;;;14.89;49.54;102161.47;7391233;19;20005;-57
2022/10/04 08:58:59;;;;;;;17.13;5.10;;;;;;;15.03;49.31;102167.50;7391227;19;20007;-58
2022/10/04 09:01:37;;;;;;;14.18;4.68;;;;;;;15.09;48.81;102165.31;7391779;19;19998;-58
2022/10/04 09:04:31;;;;;;;16.08;4.70;;;;;;;14.98;48.94;102163.00;7390565;19;20007;-58
2022/10/04 09:07:34;;;;;;;12.35;4.80;;;;;;;14.97;48.38;102161.38;7392429;19;20066;-58
2022/10/04 09:10:16;;;;;;;14.30;4.65;;;;;;;14.97;48.64;102166.88;7391554;19;20086;-58
2022/10/04 09:13:00;;;;;;;15.55;5.07;;;;;;;15.06;48.00;102155.78;7389739;19;20017;-58
2022/10/04 09:15:44;;;;;;;12.75;4.15;;;;;;;15.06;48.13;102150.28;7390130;19;20006;-58
2022/10/04 09:18:21;;;;;;;14.23;5.03;;;;;;;15.21;48.20;102143.34;7388665;19;20014;-58
2022/10/04 09:20:46;;;;;;;16.42;4.38;;;;;;;15.18;47.88;102144.06;7391876;19;20010;-58
2022/10/04 09:23:21;;;;;;;15.23;4.20;;;;;;;15.29;47.81;102147.94;7389662;19;20003;-58
2022/10/04 09:25:51;;;;;;;13.73;4.57;;;;;;;15.22;47.74;102141.41;7393461;19;20115;-58
2022/10/04 09:28:25;;;;;;;14.68;4.22;;;;;;;15.23;47.74;102143.81;7396285;19;20475;-59
2022/10/04 09:31:13;;;;;;;18.30;4.72;;;;;;;15.22;47.53;102146.91;7398397;19;20033;-59
2022/10/04 09:33:47;;;;;;;14.30;3.80;;;;;;;15.38;47.31;102147.88;7396340;19;20010;-58
2022/10/04 09:36:28;;;;;;;10.43;3.78;;;;;;;15.41;47.41;102144.41;7397777;19;20040;-58
2022/10/04 09:39:25;;;;;;;13.98;4.22;;;;;;;15.35;47.34;102146.59;7397152;19;20014;-58
2022/10/04 09:42:19;;;;;;;13.32;4.00;;;;;;;15.45;47.29;102141.81;7397987;19;20002;-58
2022/10/04 09:45:20;;;;;;;11.57;3.70;;;;;;;15.52;46.75;102151.06;7396334;19;20070;-59
2022/10/04 09:47:55;;;;;;;13.85;4.00;;;;;;;15.65;46.53;102142.88;7398228;19;20465;-59
2022/10/04 09:50:56;;;;;;;12.77;3.80;;;;;;;15.68;46.26;102131.97;7397971;19;20003;-59
2022/10/04 09:53:33;;;;;;;10.57;3.38;;;;;;;15.74;46.53;102135.28;7395228;19;20010;-58
2022/10/04 09:56:03;;;;;;;14.20;3.67;;;;;;;15.57;46.26;102125.28;7397466;19;20075;-58
2022/10/04 09:58:45;;;;;;;15.43;3.88;;;;;;;15.70;46.36;102137.94;7398049;19;20466;-58
2022/10/04 10:01:24;;;;;;;13.48;3.90;;;;;;;15.57;46.41;102133.53;7395517;19;20013;-59
2022/10/04 10:04:24;;;;;;;11.75;3.10;;;;;;;15.70;45.44;102129.66;7393933;19;20003;-58
2022/10/04 10:07:29;;;;;;;10.13;3.35;;;;;;;15.85;45.58;102117.16;7397645;19;20031;-58
2022/10/04 10:16:24;;;;;;;;;;;;;;;15.95;44.51;102117.81;7398177;19;20023;-58
2022/10/04 10:19:12;;;;;;;12.32;3.15;;;;;;;16.05;44.71;102118.16;7394387;19;19935;-58
2022/10/04 10:21:40;;;;;;;13.45;3.17;;;;;;;16.10;44.21;102119.88;7396509;19;20002;-58
2022/10/04 10:24:25;;;;;;;15.32;3.40;;;;;;;16.15;44.17;102116.88;7395370;19;20003;-58
2022/10/04 10:27:01;;;;;;;14.52;3.47;;;;;;;16.20;44.42;102116.66;7397039;19;20077;-58
2022/10/04 10:29:26;;;;;;;10.32;3.33;;;;;;;16.32;44.36;102114.97;7395291;19;20392;-58
2022/10/04 10:32:27;;;;;;;11.30;3.22;;;;;;;16.36;43.90;102113.16;7396336;19;20011;-58
2022/10/04 10:35:22;;;;;;;8.32;2.80;;;;;;;16.22;42.72;102114.34;7394621;19;20471;-58
2022/10/04 10:38:03;;;;;;;10.80;3.08;;;;;;;16.23;42.91;102121.47;7396660;19;20100;-58
2022/10/04 10:40:44;;;;;;;8.88;3.13;;;;;;;16.16;43.30;102109.41;7394978;19;20007;-58
2022/10/04 10:43:34;;;;;;;12.57;3.65;;;;;;;16.20;43.26;102108.38;7395193;19;20006;-58
2022/10/04 10:46:12;;;;;;;11.32;3.17;;;;;;;16.26;42.82;102118.00;7396374;19;19998;-58
2022/10/04 10:48:53;;;;;;;10.40;3.63;;;;;;;16.29;43.42;102111.78;7394998;19;20006;-58
2022/10/04 10:51:24;;;;;;;10.73;3.45;;;;;;;16.29;43.28;102114.53;7395694;19;20024;-59
2022/10/04 10:54:32;;;;;;;10.07;3.05;;;;;;;16.35;42.52;102114.28;7394005;19;20043;-58
2022/10/04 10:57:34;;;;;;;12.98;3.28;;;;;;;16.43;42.52;102114.16;7396009;19;20006;-59
2022/10/04 11:00:34;;;;;;;8.95;2.97;;;;;;;16.43;42.62;102121.63;7392662;19;20466;-58
2022/10/04 11:03:04;;;;;;;12.85;3.58;;;;;;;16.49;42.76;102108.44;7391218;19;20002;-58
2022/10/04 11:05:33;;;;;;;10.60;3.58;;;;;;;16.54;42.40;102111.72;7393152;19;20003;-58
2022/10/04 11:08:16;;;;;;;13.07;3.80;;;;;;;16.51;42.53;102101.41;7395102;19;20025;-58
2022/10/04 11:11:07;;;;;;;10.88;3.78;;;;;;;16.61;42.50;102095.38;7394569;19;20007;-58
2022/10/04 11:14:17;;;;;;;13.50;3.95;;;;;;;16.60;42.63;102098.50;7390497;19;20556;-58
2022/10/04 11:16:56;;;;;;;16.50;4.25;;;;;;;16.61;42.19;102108.38;7394398;19;20010;-58
2022/10/04 11:19:50;;;;;;;11.98;3.95;;;;;;;16.61;42.85;102095.38;7395716;19;20500;-59
2022/10/04 11:22:16;;;;;;;12.25;4.22;;;;;;;;;;7394029;19;19994;-58
2022/10/04 11:25:06;;;;;;;12.73;4.63;;;;;;;16.69;42.44;102095.59;7391936;19;20066;-58
2022/10/04 11:28:03;;;;;;;10.65;4.65;;;;;;;16.82;42.91;102095.19;7394000;19;19998;-58
2022/10/04 11:31:10;;;;;;;14.48;4.68;;;;;;;16.74;42.69;102089.84;7393050;19;19997;-59
2022/10/04 11:34:20;;;;;;;11.90;4.28;;;;;;;16.85;42.79;102071.59;7391835;19;20466;-58
2022/10/04 11:37:18;;;;;;;18.33;5.05;;;;;;;16.88;43.24;102076.41;7393600;19;19995;-58
2022/10/04 11:40:13;;;;;;;14.80;4.78;;;;;;;16.93;42.78;102069.84;7394331;19;20007;-58
2022/10/04 11:43:17;;;;;;;14.85;4.80;;;;;;;16.86;43.03;102072.41;7392776;19;20003;-58
2022/10/04 11:46:05;;;;;;;12.75;4.57;;;;;;;16.97;42.91;102063.25;7394702;19;20014;-59
2022/10/04 11:49:07;;;;;;;10.95;4.53;;;;;;;16.91;43.58;102058.38;7390813;19;19994;-58
2022/10/04 11:51:51;;;;;;;10.80;4.25;;;;;;;17.02;42.96;102049.22;7392315;19;20006;-58
2022/10/04 11:54:46;;;;;;;12.40;4.75;;;;;;;16.82;43.00;102053.03;7392050;19;19998;-59
2022/10/04 11:57:19;;;;;;;10.20;4.20;;;;;;;16.91;43.40;102045.38;7394707;19;20007;-59
2022/10/04 12:00:05;;;;;;;10.90;3.83;;;;;;;17.02;43.13;102043.69;7390863;19;20083;-58
2022/10/04 12:03:09;;;;;;;11.30;4.60;;;;;;;17.04;43.04;102037.03;7391134;19;20450;-58
2022/10/04 12:06:16;;;;;;;11.33;3.77;;;;;;;17.08;42.59;102029.63;7393479;19;20003;-58
2022/10/04 12:09:21;;;;;;;10.43;4.55;;;;;;;17.24;42.45;102029.63;7391250;19;20310;-58
2022/10/04 12:12:35;;;;;;;11.98;3.40;;;;;;;17.20;42.41;102035.03;7393621;19;19999;-58
2022/10/04 12:15:33;;;;;;;8.95;3.65;;;;;;;17.12;42.31;102022.22;7391054;19;20011;-58
2022/10/04 12:18:26;;;;;;;10.40;3.90;;;;;;;17.14;42.55;102017.97;7393290;19;20002;-58
2022/10/04 12:21:28;;;;;;;11.15;3.95;;;;;;;17.13;42.90;102023.84;7390639;19;19999;-59
2022/10/04 12:24:03;;;;;;;8.10;3.40;;;;;;;17.25;42.70;102023.72;7390915;19;19999;-59
2022/10/04 12:26:49;;;;;;;12.90;3.90;;;;;;;17.30;42.56;102025.44;7393152;19;19999;-58
2022/10/04 12:29:31;;;;;;;9.80;3.33;;;;;;;17.41;42.80;102014.69;7389250;19;19999;-59